createdAt,value
2022-12-16T00:01:52.867Z,101562.25
2022-12-16T00:04:23.141Z,101561.47
2022-12-16T00:06:51.302Z,101554.63
2022-12-16T00:09:20.387Z,101555.63
2022-12-16T00:11:48.547Z,101553.09
2022-12-16T00:14:16.777Z,101548.09
2022-12-16T00:16:44.970Z,101541.22
2022-12-16T00:19:14.742Z,101545.50
2022-12-16T00:21:42.936Z,101540.38
2022-12-16T00:24:11.913Z,101549.09
2022-12-16T00:26:40.061Z,101539.69
2022-12-16T00:29:11.189Z,101538.03
2022-12-16T00:31:39.720Z,101537.22
2022-12-16T00:34:07.981Z,101539.78
2022-12-16T00:36:37.922Z,101532.94
2022-12-16T00:39:06.014Z,101537.34
2022-12-16T00:41:34.501Z,101537.34
2022-12-16T00:44:02.872Z,101540.34
2022-12-16T00:46:31.059Z,101545.75
2022-12-16T00:48:59.151Z,101543.31
2022-12-16T00:51:27.574Z,101538.97
2022-12-16T00:53:57.351Z,101535.53
2022-12-16T00:56:25.531Z,101538.88
2022-12-16T00:58:53.746Z,101540.72
2022-12-16T01:01:23.154Z,101545.91
2022-12-16T01:03:51.545Z,101545.06
2022-12-16T01:06:19.848Z,101542.53
2022-12-16T01:08:49.447Z,101540.81
2022-12-16T01:11:20.757Z,101548.56
2022-12-16T01:13:52.825Z,101551.22
2022-12-16T01:16:23.435Z,101547.91
2022-12-16T01:18:51.978Z,101554.00
2022-12-16T01:21:20.586Z,101555.72
2022-12-16T01:23:49.056Z,101549.72
2022-12-16T01:26:19.598Z,101549.72
2022-12-16T01:28:50.003Z,101554.13
2022-12-16T01:31:19.634Z,101555.06
2022-12-16T01:33:48.351Z,101555.22
2022-12-16T01:36:16.584Z,101561.31
2022-12-16T01:38:45.812Z,101545.00
2022-12-16T01:41:15.550Z,101557.06
2022-12-16T01:43:47.173Z,101557.88
2022-12-16T01:46:21.496Z,101559.69
2022-12-16T01:48:53.781Z,101564.03
2022-12-16T01:51:27.806Z,101558.94
2022-12-16T01:54:00.587Z,101565.88
2022-12-16T01:56:32.283Z,101571.06
2022-12-16T01:59:03.095Z,101564.22
2022-12-16T02:01:31.359Z,101562.53
2022-12-16T02:04:03.975Z,101564.22
2022-12-16T02:06:33.351Z,101571.91
2022-12-16T02:09:04.675Z,101561.53
2022-12-16T02:11:46.453Z,101565.09
2022-12-16T02:14:37.488Z,101568.53
2022-12-16T02:17:10.663Z,101564.38
2022-12-16T02:20:16.008Z,101566.88
2022-12-16T02:23:00.392Z,101566.03
2022-12-16T02:25:59.515Z,101572.22
2022-12-16T02:28:40.497Z,101563.53
2022-12-16T02:31:26.815Z,101564.50
2022-12-16T02:34:09.555Z,101561.09
2022-12-16T02:36:51.292Z,101565.44
2022-12-16T02:39:24.117Z,101567.31
2022-12-16T02:41:58.577Z,101561.31
2022-12-16T02:44:36.939Z,101561.31
2022-12-16T02:47:06.727Z,101569.09
2022-12-16T02:49:47.244Z,101566.66
2022-12-16T02:52:16.134Z,101571.84
2022-12-16T02:54:45.320Z,101572.81
2022-12-16T02:57:34.006Z,101565.13
2022-12-16T03:00:06.542Z,101559.97
2022-12-16T03:02:46.941Z,101559.97
2022-12-16T03:05:20.540Z,101563.44
2022-12-16T03:07:51.483Z,101561.78
2022-12-16T03:10:26.232Z,101566.13
2022-12-16T03:12:57.722Z,101557.50
2022-12-16T03:15:30.747Z,101553.25
2022-12-16T03:18:02.254Z,101553.41
2022-12-16T03:20:37.031Z,101556.91
2022-12-16T03:23:11.727Z,101548.34
2022-12-16T03:25:46.854Z,101546.69
2022-12-16T03:28:26.191Z,101546.78
2022-12-16T03:31:02.677Z,101538.94
2022-12-16T03:33:36.601Z,101539.84
2022-12-16T03:36:11.746Z,101548.63
2022-12-16T03:38:40.839Z,101550.94
2022-12-16T03:41:09.849Z,101553.63
2022-12-16T03:43:39.094Z,101557.22
2022-12-16T03:46:09.300Z,101556.28
2022-12-16T03:48:46.958Z,101559.72
2022-12-16T03:51:15.995Z,101549.50
2022-12-16T03:53:44.275Z,101549.44
2022-12-16T03:56:13.194Z,101544.41
2022-12-16T03:58:41.927Z,101551.25
2022-12-16T04:01:13.344Z,101554.84
2022-12-16T04:03:42.973Z,101550.44
2022-12-16T04:06:11.349Z,101547.00
2022-12-16T04:08:39.585Z,101537.63
2022-12-16T04:11:25.094Z,101547.97
2022-12-16T04:14:10.681Z,101545.56
2022-12-16T04:16:56.595Z,101560.88
2022-12-16T04:19:47.286Z,101550.44
2022-12-16T04:22:51.146Z,101547.84
2022-12-16T04:25:22.206Z,101545.38
2022-12-16T04:27:50.463Z,101547.09
2022-12-16T04:30:20.617Z,101549.81
2022-12-16T04:33:10.434Z,101549.81
2022-12-16T04:35:57.318Z,101537.72
2022-12-16T04:38:42.997Z,101542.88
2022-12-16T04:41:28.827Z,101547.16
2022-12-16T04:44:14.479Z,101545.38
2022-12-16T04:46:59.977Z,101538.50
2022-12-16T04:49:45.524Z,101540.16
2022-12-16T04:52:33.287Z,101538.31
2022-12-16T04:55:18.602Z,101539.25
2022-12-16T04:58:07.372Z,101527.22
2022-12-16T05:00:53.215Z,101534.97
2022-12-16T05:03:41.546Z,101525.47
2022-12-16T05:06:27.166Z,101520.28
2022-12-16T05:09:14.238Z,101523.72
2022-12-16T05:11:59.994Z,101528.06
2022-12-16T05:14:45.558Z,101514.97
2022-12-16T05:17:31.047Z,101520.06
2022-12-16T05:20:17.023Z,101517.47
2022-12-16T05:23:03.057Z,101513.22
2022-12-16T05:25:50.517Z,101507.13
2022-12-16T05:28:36.405Z,101510.47
2022-12-16T05:31:21.916Z,101507.03
2022-12-16T05:34:07.674Z,101515.50
2022-12-16T05:36:52.902Z,101507.72
2022-12-16T05:39:38.376Z,101505.97
2022-12-16T05:42:25.647Z,101503.47
2022-12-16T05:45:11.207Z,101497.50
2022-12-16T05:47:56.866Z,101496.59
2022-12-16T05:50:42.674Z,101488.91
2022-12-16T05:53:28.498Z,101498.44
2022-12-16T05:56:15.418Z,101501.09
2022-12-16T05:59:02.675Z,101505.28
2022-12-16T06:01:48.076Z,101504.53
2022-12-16T06:04:33.539Z,101501.78
2022-12-16T06:07:19.233Z,101494.94
2022-12-16T06:10:01.181Z,101497.59
2022-12-16T06:12:46.864Z,101490.66
2022-12-16T06:15:34.272Z,101494.09
2022-12-16T06:18:19.715Z,101485.41
2022-12-16T06:21:05.432Z,101484.56
2022-12-16T06:23:50.714Z,101481.22
2022-12-16T06:26:36.612Z,101487.25
2022-12-16T06:29:22.393Z,101483.81
2022-12-16T06:32:09.364Z,101484.75
2022-12-16T06:34:54.916Z,101485.72
2022-12-16T06:37:40.461Z,101490.81
2022-12-16T06:40:27.593Z,101486.56
2022-12-16T06:43:13.186Z,101483.03
2022-12-16T06:45:59.190Z,101484.75
2022-12-16T06:48:46.356Z,101489.97
2022-12-16T06:51:31.536Z,101499.50
2022-12-16T06:54:17.239Z,101493.13
2022-12-16T06:57:03.023Z,101487.25
2022-12-16T06:59:48.568Z,101487.38
2022-12-16T07:02:34.777Z,101495.94
2022-12-16T07:05:22.047Z,101498.44
2022-12-16T07:08:07.797Z,101494.94
2022-12-16T07:11:00.369Z,101493.16
2022-12-16T07:13:54.603Z,101495.75
2022-12-16T07:16:40.446Z,101493.47
2022-12-16T07:19:26.224Z,101491.41
2022-12-16T07:22:13.521Z,101486.31
2022-12-16T07:24:59.410Z,101488.81
2022-12-16T07:27:44.736Z,101488.91
2022-12-16T07:30:31.499Z,101490.66
2022-12-16T07:33:17.299Z,101494.19
2022-12-16T07:36:03.111Z,101498.56
2022-12-16T07:38:49.928Z,101494.31
2022-12-16T07:41:35.766Z,101494.41
2022-12-16T07:44:21.024Z,101491.72
2022-12-16T07:47:06.814Z,101491.72
2022-12-16T07:49:51.999Z,101490.91
2022-12-16T07:52:41.104Z,101500.47
2022-12-16T07:55:29.360Z,101497.00
2022-12-16T07:58:14.809Z,101497.81
2022-12-16T08:01:04.949Z,101499.34
2022-12-16T08:03:53.399Z,101507.25
2022-12-16T08:06:40.571Z,101508.94
2022-12-16T08:09:26.315Z,101507.34
2022-12-16T08:12:24.626Z,101515.13
2022-12-16T08:15:10.113Z,101515.13
2022-12-16T08:17:55.679Z,101514.34
2022-12-16T08:20:41.670Z,101514.56
2022-12-16T08:23:26.941Z,101510.16
2022-12-16T08:26:12.887Z,101513.66
2022-12-16T08:29:27.309Z,101512.81
2022-12-16T08:32:16.621Z,101513.72
2022-12-16T08:35:02.149Z,101520.66
2022-12-16T08:37:47.477Z,101517.25
2022-12-16T08:40:36.069Z,101526.69
2022-12-16T08:43:22.825Z,101535.97
2022-12-16T08:46:12.709Z,101531.34
2022-12-16T08:48:58.397Z,101524.31
2022-12-16T08:51:44.726Z,101532.00
2022-12-16T08:54:30.500Z,101535.19
2022-12-16T08:57:16.450Z,101538.66
2022-12-16T09:00:07.678Z,101547.25
2022-12-16T09:02:55.564Z,101538.56
2022-12-16T09:05:50.087Z,101543.59
2022-12-16T09:08:36.633Z,101549.59
2022-12-16T09:11:22.380Z,101545.25
2022-12-16T09:14:08.175Z,101549.75
2022-12-16T09:16:54.067Z,101557.66
2022-12-16T09:19:41.781Z,101556.59
2022-12-16T09:22:27.697Z,101556.13
2022-12-16T09:25:13.156Z,101557.75
2022-12-16T09:27:58.946Z,101562.09
2022-12-16T09:30:44.739Z,101551.59
2022-12-16T09:33:30.802Z,101558.25
2022-12-16T09:36:18.018Z,101553.78
2022-12-16T09:39:03.668Z,101564.69
2022-12-16T09:42:00.375Z,101558.41
2022-12-16T09:44:56.889Z,101559.03
2022-12-16T09:47:50.085Z,101551.88
2022-12-16T09:50:40.419Z,101545.53
2022-12-16T09:53:31.895Z,101541.88
2022-12-16T09:56:20.150Z,101543.47
2022-12-16T09:59:10.334Z,101544.16
2022-12-16T10:01:57.220Z,101546.59
2022-12-16T10:04:43.741Z,101544.75
2022-12-16T10:07:36.237Z,101552.38
2022-12-16T10:10:35.551Z,101542.69
2022-12-16T10:13:31.883Z,101541.59
2022-12-16T10:16:26.770Z,101544.72
2022-12-16T10:19:19.734Z,101541.09
2022-12-16T10:22:16.645Z,101543.38
2022-12-16T10:25:12.574Z,101538.84
2022-12-16T10:28:03.714Z,101538.63
2022-12-16T10:30:50.508Z,101537.53
2022-12-16T10:33:37.696Z,101532.94
2022-12-16T10:36:26.483Z,101518.91
2022-12-16T10:39:16.728Z,101509.88
2022-12-16T10:42:07.250Z,101509.53
2022-12-16T10:44:59.820Z,101504.81
2022-12-16T10:47:45.100Z,101500.22
2022-12-16T10:50:32.452Z,101499.81
2022-12-16T10:53:20.816Z,101488.25
2022-12-16T10:56:16.077Z,101479.22
2022-12-16T10:59:08.384Z,101471.91
2022-12-16T11:01:56.451Z,101474.06
2022-12-16T11:04:50.469Z,101466.69
2022-12-16T11:07:50.686Z,101469.66
2022-12-16T11:10:45.465Z,101464.75
2022-12-16T11:13:39.584Z,101462.53
2022-12-16T11:16:29.474Z,101464.78
2022-12-16T11:19:17.242Z,101454.78
2022-12-16T11:22:03.540Z,101448.28
2022-12-16T11:24:49.339Z,101441.63
2022-12-16T11:27:40.981Z,101438.47
2022-12-16T11:30:36.934Z,101431.03
2022-12-16T11:33:29.891Z,101427.00
2022-12-16T11:36:29.161Z,101427.47
2022-12-16T11:39:15.174Z,101420.97
2022-12-16T11:42:03.673Z,101420.59
2022-12-16T11:44:55.130Z,101416.84
2022-12-16T11:47:52.937Z,101406.91
2022-12-16T11:50:39.291Z,101403.19
2022-12-16T11:53:49.817Z,101400.38
2022-12-16T11:56:39.461Z,101394.25
2022-12-16T11:59:31.746Z,101401.75
2022-12-16T12:02:22.823Z,101404.16
2022-12-16T12:05:09.066Z,101405.72
2022-12-16T12:08:05.518Z,101406.56
2022-12-16T12:11:08.901Z,101407.28
2022-12-16T12:14:17.534Z,101407.28
2022-12-16T12:17:27.920Z,101404.69
2022-12-16T12:20:25.010Z,101415.91
2022-12-16T12:23:13.980Z,101419.38
2022-12-16T12:26:08.946Z,101418.53
2022-12-16T12:29:06.169Z,101424.59
2022-12-16T12:32:00.922Z,101433.28
2022-12-16T12:34:54.080Z,101437.78
2022-12-16T12:37:45.356Z,101437.97
2022-12-16T12:40:50.218Z,101447.94
2022-12-16T12:43:47.392Z,101456.66
2022-12-16T12:46:40.696Z,101460.47
2022-12-16T12:49:32.434Z,101461.63
2022-12-16T12:52:28.486Z,101465.13
2022-12-16T12:55:21.859Z,101471.16
2022-12-16T12:58:09.552Z,101471.16
2022-12-16T13:01:03.482Z,101469.50
2022-12-16T13:03:56.578Z,101473.69
2022-12-16T13:06:42.958Z,101466.59
2022-12-16T13:09:56.307Z,101474.94
2022-12-16T13:12:45.428Z,101476.63
2022-12-16T13:15:47.805Z,101481.63
2022-12-16T13:18:43.644Z,101476.25
2022-12-16T13:22:04.315Z,101472.81
2022-12-16T13:25:07.408Z,101474.47
2022-12-16T13:28:13.864Z,101471.03
2022-12-16T13:31:20.241Z,101468.34
2022-12-16T13:34:12.240Z,101466.56
2022-12-16T13:37:19.181Z,101479.41
2022-12-16T13:40:21.046Z,101475.84
2022-12-16T13:43:12.230Z,101483.56
2022-12-16T13:46:00.027Z,101487.00
2022-12-16T13:48:52.260Z,101485.03
2022-12-16T13:52:18.542Z,101492.22
2022-12-16T13:55:10.320Z,101494.16
2022-12-16T13:58:00.730Z,101493.41
2022-12-16T14:00:47.941Z,101490.19
2022-12-16T14:03:38.596Z,101491.94
2022-12-16T14:06:37.644Z,101493.81
2022-12-16T14:09:37.899Z,101496.50
2022-12-16T14:12:32.006Z,101497.34
2022-12-16T14:15:23.711Z,101494.09
2022-12-16T14:18:19.357Z,101503.78
2022-12-16T14:21:09.533Z,101495.31
2022-12-16T14:24:00.783Z,101504.22
2022-12-16T14:26:47.740Z,101497.44
2022-12-16T14:29:40.235Z,101496.72
2022-12-16T14:32:47.059Z,101494.28
2022-12-16T14:35:34.824Z,101483.16
2022-12-16T14:38:39.232Z,101491.13
2022-12-16T14:41:28.882Z,101482.63
2022-12-16T14:44:15.676Z,101485.22
2022-12-16T14:47:01.440Z,101493.13
2022-12-16T14:49:48.169Z,101495.91
2022-12-16T14:52:39.467Z,101502.03
2022-12-16T14:55:36.004Z,101501.19
2022-12-16T14:58:27.787Z,101502.03
2022-12-16T15:01:15.926Z,101502.03
2022-12-16T15:04:04.176Z,101502.94
2022-12-16T15:06:53.714Z,101502.09
2022-12-16T15:09:51.064Z,101496.19
2022-12-16T15:12:41.314Z,101501.38
2022-12-16T15:15:32.236Z,101503.41
2022-12-16T15:18:21.755Z,101498.22
2022-12-16T15:21:10.962Z,101497.56
2022-12-16T15:24:00.264Z,101500.34
2022-12-16T15:26:47.900Z,101497.84
2022-12-16T15:29:46.805Z,101501.47
2022-12-16T15:32:48.096Z,101508.50
2022-12-16T15:35:47.071Z,101507.84
2022-12-16T15:38:40.697Z,101513.03
2022-12-16T15:41:40.738Z,101512.31
2022-12-16T15:44:34.270Z,101514.09
2022-12-16T15:47:19.954Z,101509.88
2022-12-16T15:50:07.685Z,101505.72
2022-12-16T15:52:57.198Z,101509.88
2022-12-16T15:55:49.443Z,101502.94
2022-12-16T15:58:41.392Z,101508.59
2022-12-16T16:01:29.130Z,101502.84
2022-12-16T16:04:16.258Z,101509.81
2022-12-16T16:07:06.237Z,101516.00
2022-12-16T16:09:54.776Z,101523.13
2022-12-16T16:12:56.525Z,101515.34
2022-12-16T16:15:42.224Z,101522.31
2022-12-16T16:18:29.024Z,101534.44
2022-12-16T16:21:14.507Z,101518.03
2022-12-16T16:24:00.483Z,101531.03
2022-12-16T16:26:47.179Z,101523.34
2022-12-16T16:29:32.484Z,101517.38
2022-12-16T16:32:18.209Z,101515.72
2022-12-16T16:35:03.741Z,101506.97
2022-12-16T16:37:49.617Z,101510.50
2022-12-16T16:40:40.932Z,101510.63
2022-12-16T16:43:27.759Z,101498.53
2022-12-16T16:46:14.649Z,101506.31
2022-12-16T16:49:00.949Z,101500.28
2022-12-16T16:51:47.413Z,101501.22
2022-12-16T16:54:33.417Z,101496.97
2022-12-16T16:57:20.278Z,101498.72
2022-12-16T17:00:07.127Z,101494.47
2022-12-16T17:02:52.862Z,101487.59
2022-12-16T17:05:47.060Z,101499.66
2022-12-16T17:08:32.634Z,101497.06
2022-12-16T17:11:18.327Z,101496.13
2022-12-16T17:14:04.131Z,101497.81
2022-12-16T17:16:51.095Z,101505.31
2022-12-16T17:19:36.395Z,101508.66
2022-12-16T17:22:22.244Z,101508.59
2022-12-16T17:25:07.607Z,101498.19
2022-12-16T17:27:52.869Z,101493.00
2022-12-16T17:30:46.625Z,101481.78
2022-12-16T17:33:34.686Z,101486.69
2022-12-16T17:36:20.758Z,101487.44
2022-12-16T17:39:06.418Z,101483.06
2022-12-16T17:41:52.537Z,101476.09
2022-12-16T17:44:38.472Z,101482.25
2022-12-16T17:47:24.028Z,101480.47
2022-12-16T17:50:11.156Z,101482.06
2022-12-16T17:52:56.664Z,101480.31
2022-12-16T17:55:42.489Z,101483.72
2022-12-16T17:58:31.064Z,101484.56
2022-12-16T18:01:20.182Z,101485.38
2022-12-16T18:04:05.904Z,101481.88
2022-12-16T18:06:52.828Z,101480.97
2022-12-16T18:09:38.305Z,101477.50
2022-12-16T18:12:24.040Z,101489.66
2022-12-16T18:15:09.590Z,101483.63
2022-12-16T18:17:55.277Z,101496.63
2022-12-16T18:20:40.706Z,101484.47
2022-12-16T18:23:27.498Z,101484.94
2022-12-16T18:26:19.272Z,101482.63
2022-12-16T18:29:04.963Z,101481.97
2022-12-16T18:31:50.889Z,101474.16
2022-12-16T18:34:36.807Z,101476.66
2022-12-16T18:37:22.687Z,101480.47
2022-12-16T18:40:10.007Z,101482.97
2022-12-16T18:42:55.281Z,101480.38
2022-12-16T18:45:41.362Z,101485.69
2022-12-16T18:48:27.474Z,101490.03
2022-12-16T18:51:14.605Z,101488.47
2022-12-16T18:54:00.451Z,101485.94
2022-12-16T18:56:47.703Z,101487.72
2022-12-16T18:59:33.835Z,101492.63
2022-12-16T19:02:19.694Z,101490.69
2022-12-16T19:05:05.223Z,101487.06
2022-12-16T19:07:51.031Z,101483.47
2022-12-16T19:10:36.824Z,101487.72
2022-12-16T19:13:23.550Z,101491.16
2022-12-16T19:16:13.222Z,101482.44
2022-12-16T19:18:58.979Z,101489.38
2022-12-16T19:21:51.374Z,101478.91
2022-12-16T19:24:37.854Z,101479.19
2022-12-16T19:27:31.728Z,101478.16
2022-12-16T19:30:18.740Z,101475.78
2022-12-16T19:33:06.581Z,101484.13
2022-12-16T19:35:52.322Z,101490.97
2022-12-16T19:38:39.237Z,101490.03
2022-12-16T19:41:32.104Z,101494.59
2022-12-16T19:44:17.594Z,101493.19
2022-12-16T19:47:04.859Z,101500.63
2022-12-16T19:49:50.474Z,101491.81
2022-12-16T19:52:35.817Z,101487.44
2022-12-16T19:55:21.637Z,101493.41
2022-12-16T19:58:07.455Z,101485.50
2022-12-16T20:00:53.089Z,101496.72
2022-12-16T20:03:40.569Z,101495.06
2022-12-16T20:06:28.136Z,101503.69
2022-12-16T20:09:15.144Z,101494.31
2022-12-16T20:12:01.370Z,101499.50
2022-12-16T20:14:47.401Z,101492.63
2022-12-16T20:17:29.685Z,101494.31
2022-12-16T20:20:16.813Z,101490.97
2022-12-16T20:23:02.254Z,101487.44
2022-12-16T20:25:47.987Z,101477.88
2022-12-16T20:28:33.292Z,101471.84
2022-12-16T20:31:19.164Z,101473.50
2022-12-16T20:34:04.512Z,101457.19
2022-12-16T20:36:51.767Z,101455.41
2022-12-16T20:39:37.214Z,101451.06
2022-12-16T20:42:23.110Z,101451.06
2022-12-16T20:45:08.711Z,101459.59
2022-12-16T20:47:56.282Z,101456.91
2022-12-16T20:50:42.138Z,101448.16
2022-12-16T20:53:29.317Z,101449.00
2022-12-16T20:56:21.456Z,101450.66
2022-12-16T20:59:08.079Z,101438.44
2022-12-16T21:02:21.709Z,101439.25
2022-12-16T21:05:00.372Z,101437.38
2022-12-16T21:07:46.035Z,101432.28
2022-12-16T21:10:32.857Z,101422.44
2022-12-16T21:13:24.641Z,101430.88
2022-12-16T21:16:10.025Z,101428.19
2022-12-16T21:18:55.327Z,101431.44
2022-12-16T21:21:42.269Z,101427.81
2022-12-16T21:24:27.666Z,101431.13
2022-12-16T21:27:14.577Z,101428.34
2022-12-16T21:30:00.073Z,101432.50
2022-12-16T21:32:46.387Z,101416.81
2022-12-16T21:35:31.919Z,101422.00
2022-12-16T21:38:17.662Z,101429.81
2022-12-16T21:41:09.787Z,101433.16
2022-12-16T21:43:57.071Z,101421.09
2022-12-16T21:46:42.250Z,101421.09
2022-12-16T21:49:27.965Z,101420.25
2022-12-16T21:52:13.839Z,101430.75
2022-12-16T21:54:59.195Z,101431.69
2022-12-16T21:57:44.451Z,101430.03
2022-12-16T22:00:32.970Z,101436.16
2022-12-16T22:03:18.796Z,101440.59
2022-12-16T22:06:07.571Z,101433.75
2022-12-16T22:08:53.043Z,101438.22
2022-12-16T22:11:41.750Z,101430.59
2022-12-16T22:14:27.465Z,101434.31
2022-12-16T22:17:14.433Z,101428.47
2022-12-16T22:20:00.129Z,101429.22
2022-12-16T22:22:46.346Z,101431.00
2022-12-16T22:25:31.912Z,101433.66
2022-12-16T22:28:17.183Z,101432.72
2022-12-16T22:31:02.594Z,101427.53
2022-12-16T22:33:50.054Z,101434.59
2022-12-16T22:36:35.845Z,101441.56
2022-12-16T22:39:17.837Z,101431.16
2022-12-16T22:42:03.616Z,101434.72
2022-12-16T22:44:48.946Z,101441.56
2022-12-16T22:47:34.624Z,101436.19
2022-12-16T22:50:21.868Z,101433.50
2022-12-16T22:53:07.635Z,101442.94
2022-12-16T22:55:56.197Z,101438.50
2022-12-16T22:58:45.890Z,101433.19
2022-12-16T23:01:31.570Z,101438.09
2022-12-16T23:04:16.946Z,101441.34
2022-12-16T23:07:04.342Z,101447.19
2022-12-16T23:09:49.643Z,101446.88
2022-12-16T23:12:35.182Z,101441.50
2022-12-16T23:15:23.236Z,101430.91
2022-12-16T23:18:08.811Z,101429.03
2022-12-16T23:20:55.045Z,101428.00
2022-12-16T23:23:43.616Z,101413.31
2022-12-16T23:26:29.354Z,101422.81
2022-12-16T23:29:15.270Z,101406.16
2022-12-16T23:32:00.553Z,101413.88
2022-12-16T23:34:46.428Z,101410.22
2022-12-16T23:37:33.692Z,101406.69
2022-12-16T23:40:20.687Z,101409.22
2022-12-16T23:43:06.842Z,101409.09
2022-12-16T23:45:52.626Z,101403.91
2022-12-16T23:48:37.968Z,101397.88
2022-12-16T23:51:23.668Z,101390.16
2022-12-16T23:54:09.349Z,101387.66
2022-12-16T23:56:56.670Z,101393.69
2022-12-16T23:59:42.299Z,101394.50
